sensor_id;sensor_type;location;lat;lon;timestamp;pressure;altitude;pressure_sealevel;temperature;humidity
66524;BME280;53350;52.210;5.160;2022-12-07T00:00:54;101909.72;;;6.59;74.63
66524;BME280;53350;52.210;5.160;2022-12-07T00:03:20;101911.47;;;6.60;74.14
66524;BME280;53350;52.210;5.160;2022-12-07T00:05:47;101906.31;;;6.59;74.50
66524;BME280;53350;52.210;5.160;2022-12-07T00:08:15;101912.25;;;6.58;74.24
66524;BME280;53350;52.210;5.160;2022-12-07T00:10:41;101908.75;;;6.54;74.17
66524;BME280;53350;52.210;5.160;2022-12-07T00:13:07;101906.94;;;6.50;74.12
66524;BME280;53350;52.210;5.160;2022-12-07T00:15:34;101919.69;;;6.47;74.09
66524;BME280;53350;52.210;5.160;2022-12-07T00:18:01;101910.31;;;6.46;74.06
66524;BME280;53350;52.210;5.160;2022-12-07T00:20:28;101914.50;;;6.44;74.11
66524;BME280;53350;52.210;5.160;2022-12-07T00:22:55;101904.25;;;6.44;74.37
66524;BME280;53350;52.210;5.160;2022-12-07T00:25:23;101899.97;;;6.43;74.28
66524;BME280;53350;52.210;5.160;2022-12-07T00:27:49;101894.78;;;6.40;73.88
66524;BME280;53350;52.210;5.160;2022-12-07T00:30:16;101887.03;;;6.37;74.20
66524;BME280;53350;52.210;5.160;2022-12-07T00:32:42;101889.56;;;6.35;73.90
66524;BME280;53350;52.210;5.160;2022-12-07T00:35:09;101882.72;;;6.34;74.30
66524;BME280;53350;52.210;5.160;2022-12-07T00:37:35;101880.97;;;6.32;73.90
66524;BME280;53350;52.210;5.160;2022-12-07T00:40:02;101884.34;;;6.31;74.25
66524;BME280;53350;52.210;5.160;2022-12-07T00:42:30;101884.31;;;6.29;73.58
66524;BME280;53350;52.210;5.160;2022-12-07T00:44:56;101885.94;;;6.25;73.75
66524;BME280;53350;52.210;5.160;2022-12-07T00:47:22;101878.97;;;6.20;73.78
66524;BME280;53350;52.210;5.160;2022-12-07T00:49:49;101872.13;;;6.17;73.44
66524;BME280;53350;52.210;5.160;2022-12-07T00:52:15;101876.25;;;6.12;73.38
66524;BME280;53350;52.210;5.160;2022-12-07T00:54:42;101883.03;;;6.08;73.59
66524;BME280;53350;52.210;5.160;2022-12-07T00:57:08;101883.81;;;6.06;73.51
66524;BME280;53350;52.210;5.160;2022-12-07T00:59:36;101878.69;;;6.06;73.51
66524;BME280;53350;52.210;5.160;2022-12-07T01:02:02;101880.31;;;6.04;73.78
66524;BME280;53350;52.210;5.160;2022-12-07T01:04:29;101876.03;;;6.01;73.26
66524;BME280;53350;52.210;5.160;2022-12-07T01:06:55;101879.34;;;5.97;73.54
66524;BME280;53350;52.210;5.160;2022-12-07T01:09:22;101874.97;;;5.95;73.37
66524;BME280;53350;52.210;5.160;2022-12-07T01:11:48;101875.75;;;5.92;73.28
66524;BME280;53350;52.210;5.160;2022-12-07T01:14:15;101876.59;;;5.89;73.21
66524;BME280;53350;52.210;5.160;2022-12-07T01:16:42;101882.50;;;5.88;73.54
66524;BME280;53350;52.210;5.160;2022-12-07T01:19:09;101880.78;;;5.87;73.22
66524;BME280;53350;52.210;5.160;2022-12-07T01:21:36;101881.59;;;5.86;73.07
66524;BME280;53350;52.210;5.160;2022-12-07T01:24:04;101881.53;;;5.83;73.29
66524;BME280;53350;52.210;5.160;2022-12-07T01:26:30;101888.31;;;5.81;73.02
66524;BME280;53350;52.210;5.160;2022-12-07T01:28:57;101884.00;;;5.80;73.25
66524;BME280;53350;52.210;5.160;2022-12-07T01:31:26;101883.13;;;5.78;73.24
66524;BME280;53350;52.210;5.160;2022-12-07T01:33:56;101885.53;;;5.73;72.84
66524;BME280;53350;52.210;5.160;2022-12-07T01:36:23;101883.72;;;5.68;72.95
66524;BME280;53350;52.210;5.160;2022-12-07T01:38:53;101882.78;;;5.64;72.83
66524;BME280;53350;52.210;5.160;2022-12-07T01:41:22;101886.09;;;5.62;72.83
66524;BME280;53350;52.210;5.160;2022-12-07T01:44:13;101896.25;;;5.58;72.82
66524;BME280;53350;52.210;5.160;2022-12-07T01:46:41;101895.38;;;5.56;73.05
66524;BME280;53350;52.210;5.160;2022-12-07T01:49:14;101897.03;;;5.56;73.13
66524;BME280;53350;52.210;5.160;2022-12-07T01:51:43;101897.06;;;5.57;73.43
66524;BME280;53350;52.210;5.160;2022-12-07T01:54:11;101893.69;;;5.58;73.63
66524;BME280;53350;52.210;5.160;2022-12-07T01:56:39;101890.41;;;5.63;73.62
66524;BME280;53350;52.210;5.160;2022-12-07T01:59:08;101885.44;;;5.69;74.07
66524;BME280;53350;52.210;5.160;2022-12-07T02:01:35;101876.28;;;5.77;74.44
66524;BME280;53350;52.210;5.160;2022-12-07T02:04:02;101877.28;;;5.84;75.06
66524;BME280;53350;52.210;5.160;2022-12-07T02:06:30;101881.69;;;5.89;75.15
66524;BME280;53350;52.210;5.160;2022-12-07T02:08:56;101874.97;;;5.95;75.25
66524;BME280;53350;52.210;5.160;2022-12-07T02:11:23;101871.69;;;5.99;75.43
66524;BME280;53350;52.210;5.160;2022-12-07T02:13:50;101873.44;;;6.00;75.22
66524;BME280;53350;52.210;5.160;2022-12-07T02:16:25;101867.50;;;6.02;75.10
66524;BME280;53350;52.210;5.160;2022-12-07T02:19:03;101866.72;;;6.05;75.10
66524;BME280;53350;52.210;5.160;2022-12-07T02:21:43;101866.72;;;6.05;75.09
66524;BME280;53350;52.210;5.160;2022-12-07T02:24:25;101864.19;;;6.06;75.09
66524;BME280;53350;52.210;5.160;2022-12-07T02:27:34;101860.75;;;6.04;75.07
66524;BME280;53350;52.210;5.160;2022-12-07T02:30:06;101859.97;;;6.07;75.00
66524;BME280;53350;52.210;5.160;2022-12-07T02:32:41;101861.56;;;6.03;74.79
66524;BME280;53350;52.210;5.160;2022-12-07T02:35:11;101866.66;;;6.02;74.70
66524;BME280;53350;52.210;5.160;2022-12-07T02:37:43;101847.66;;;5.93;75.08
66524;BME280;53350;52.210;5.160;2022-12-07T02:40:18;101855.56;;;6.01;74.54
66524;BME280;53350;52.210;5.160;2022-12-07T02:42:48;101858.97;;;6.02;75.11
66524;BME280;53350;52.210;5.160;2022-12-07T02:45:22;101853.88;;;6.02;75.06
66524;BME280;53350;52.210;5.160;2022-12-07T02:47:51;101858.97;;;6.02;74.75
66524;BME280;53350;52.210;5.160;2022-12-07T02:50:19;101872.66;;;6.04;75.00
66524;BME280;53350;52.210;5.160;2022-12-07T02:52:46;101866.66;;;6.02;74.96
66524;BME280;53350;52.210;5.160;2022-12-07T02:55:15;101856.41;;;6.02;75.40
66524;BME280;53350;52.210;5.160;2022-12-07T02:58:03;101858.94;;;6.00;75.37
66524;BME280;53350;52.210;5.160;2022-12-07T03:00:42;101872.47;;;5.96;75.34
66524;BME280;53350;52.210;5.160;2022-12-07T03:03:13;101858.81;;;5.96;75.40
66524;BME280;53350;52.210;5.160;2022-12-07T03:05:52;101862.28;;;5.98;75.69
66524;BME280;53350;52.210;5.160;2022-12-07T03:08:26;101856.38;;;6.00;75.67
66524;BME280;53350;52.210;5.160;2022-12-07T03:10:57;101853.06;;;6.03;75.69
66524;BME280;53350;52.210;5.160;2022-12-07T03:13:25;101855.63;;;6.04;75.38
66524;BME280;53350;52.210;5.160;2022-12-07T03:15:58;101854.84;;;6.07;75.87
66524;BME280;53350;52.210;5.160;2022-12-07T03:18:31;101846.31;;;6.08;75.60
66524;BME280;53350;52.210;5.160;2022-12-07T03:21:03;101848.03;;;6.07;75.37
66524;BME280;53350;52.210;5.160;2022-12-07T03:23:32;101856.53;;;6.06;75.33
66524;BME280;53350;52.210;5.160;2022-12-07T03:26:03;101851.38;;;6.05;75.56
66524;BME280;53350;52.210;5.160;2022-12-07T03:28:33;101857.28;;;6.02;75.21
66524;BME280;53350;52.210;5.160;2022-12-07T03:31:05;101851.25;;;5.99;75.21
66524;BME280;53350;52.210;5.160;2022-12-07T03:33:41;101850.25;;;5.95;75.06
66524;BME280;53350;52.210;5.160;2022-12-07T03:36:12;101851.09;;;5.94;75.31
66524;BME280;53350;52.210;5.160;2022-12-07T03:38:46;101857.03;;;5.93;75.08
66524;BME280;53350;52.210;5.160;2022-12-07T03:41:16;101847.53;;;5.87;75.10
66524;BME280;53350;52.210;5.160;2022-12-07T03:43:44;101858.78;;;5.94;74.93
66524;BME280;53350;52.210;5.160;2022-12-07T03:46:17;101850.22;;;5.93;74.82
66524;BME280;53350;52.210;5.160;2022-12-07T03:48:53;101850.25;;;5.95;75.02
66524;BME280;53350;52.210;5.160;2022-12-07T03:51:25;101848.59;;;5.96;75.25
66524;BME280;53350;52.210;5.160;2022-12-07T03:53:58;101848.59;;;5.96;75.08
66524;BME280;53350;52.210;5.160;2022-12-07T03:56:27;101844.31;;;5.96;75.37
66524;BME280;53350;52.210;5.160;2022-12-07T03:58:55;101846.94;;;5.98;75.38
66524;BME280;53350;52.210;5.160;2022-12-07T04:01:24;101842.59;;;5.95;75.32
66524;BME280;53350;52.210;5.160;2022-12-07T04:03:51;101837.47;;;5.95;75.15
66524;BME280;53350;52.210;5.160;2022-12-07T04:06:17;101834.03;;;5.93;75.01
66524;BME280;53350;52.210;5.160;2022-12-07T04:08:43;101832.25;;;5.90;75.08
66524;BME280;53350;52.210;5.160;2022-12-07T04:11:10;101828.00;;;5.89;75.56
66524;BME280;53350;52.210;5.160;2022-12-07T04:13:36;101833.00;;;5.86;75.24
66524;BME280;53350;52.210;5.160;2022-12-07T04:16:17;101832.13;;;5.84;75.37
66524;BME280;53350;52.210;5.160;2022-12-07T04:18:44;101834.69;;;5.84;75.34
66524;BME280;53350;52.210;5.160;2022-12-07T04:21:11;101839.75;;;5.83;75.13
66524;BME280;53350;52.210;5.160;2022-12-07T04:23:37;101857.56;;;5.78;74.58
66524;BME280;53350;52.210;5.160;2022-12-07T04:26:04;101871.88;;;5.71;75.05
66524;BME280;53350;52.210;5.160;2022-12-07T04:28:30;101865.88;;;5.69;75.78
66524;BME280;53350;52.210;5.160;2022-12-07T04:30:57;101845.41;;;5.69;76.11
66524;BME280;53350;52.210;5.160;2022-12-07T04:33:23;101808.84;;;5.73;76.64
66524;BME280;53350;52.210;5.160;2022-12-07T04:35:51;101820.91;;;5.79;76.78
66524;BME280;53350;52.210;5.160;2022-12-07T04:38:18;101828.88;;;5.91;76.27
66524;BME280;53350;52.210;5.160;2022-12-07T04:40:44;101823.84;;;5.95;76.37
66524;BME280;53350;52.210;5.160;2022-12-07T04:43:10;101824.81;;;5.98;76.56
66524;BME280;53350;52.210;5.160;2022-12-07T04:45:37;101826.56;;;6.01;76.70
66524;BME280;53350;52.210;5.160;2022-12-07T04:48:03;101820.66;;;6.03;76.76
66524;BME280;53350;52.210;5.160;2022-12-07T04:50:30;101819.00;;;6.05;76.59
66524;BME280;53350;52.210;5.160;2022-12-07T04:52:58;101823.31;;;6.08;76.87
66524;BME280;53350;52.210;5.160;2022-12-07T04:55:24;101816.56;;;6.12;76.65
66524;BME280;53350;52.210;5.160;2022-12-07T04:57:50;101821.72;;;6.13;76.12
66524;BME280;53350;52.210;5.160;2022-12-07T05:00:17;101821.69;;;6.12;76.10
66524;BME280;53350;52.210;5.160;2022-12-07T05:02:44;101809.72;;;6.11;76.11
66524;BME280;53350;52.210;5.160;2022-12-07T05:05:10;101808.88;;;6.10;75.97
66524;BME280;53350;52.210;5.160;2022-12-07T05:07:37;101811.41;;;6.08;76.01
66524;BME280;53350;52.210;5.160;2022-12-07T05:10:06;101808.78;;;6.05;76.29
66524;BME280;53350;52.210;5.160;2022-12-07T05:12:32;101814.75;;;6.06;76.04
66524;BME280;53350;52.210;5.160;2022-12-07T05:14:59;101811.34;;;6.05;75.93
66524;BME280;53350;52.210;5.160;2022-12-07T05:17:25;101810.44;;;6.05;76.04
66524;BME280;53350;52.210;5.160;2022-12-07T05:19:52;101810.41;;;6.03;75.93
66524;BME280;53350;52.210;5.160;2022-12-07T05:22:18;101814.66;;;6.01;75.32
66524;BME280;53350;52.210;5.160;2022-12-07T05:24:45;101811.16;;;5.98;75.39
66524;BME280;53350;52.210;5.160;2022-12-07T05:27:13;101816.13;;;5.93;75.40
66524;BME280;53350;52.210;5.160;2022-12-07T05:29:39;101825.47;;;5.91;74.93
66524;BME280;53350;52.210;5.160;2022-12-07T05:32:05;101818.56;;;5.87;75.16
66524;BME280;53350;52.210;5.160;2022-12-07T05:34:32;101818.50;;;5.84;75.17
66524;BME280;53350;52.210;5.160;2022-12-07T05:36:58;101821.81;;;5.80;75.10
66524;BME280;53350;52.210;5.160;2022-12-07T05:39:25;101825.97;;;5.76;75.18
66524;BME280;53350;52.210;5.160;2022-12-07T05:41:51;101820.75;;;5.71;74.98
66524;BME280;53350;52.210;5.160;2022-12-07T05:44:46;101816.41;;;5.69;75.02
66524;BME280;53350;52.210;5.160;2022-12-07T05:47:14;101818.13;;;5.68;75.07
66524;BME280;53350;52.210;5.160;2022-12-07T05:49:41;101822.41;;;5.69;75.01
66524;BME280;53350;52.210;5.160;2022-12-07T05:52:07;101815.59;;;5.70;74.79
66524;BME280;53350;52.210;5.160;2022-12-07T05:54:34;101813.91;;;5.70;74.95
66524;BME280;53350;52.210;5.160;2022-12-07T05:57:00;101819.91;;;5.71;75.04
66524;BME280;53350;52.210;5.160;2022-12-07T05:59:27;101813.03;;;5.70;74.97
66524;BME280;53350;52.210;5.160;2022-12-07T06:01:55;101810.44;;;5.68;74.83
66524;BME280;53350;52.210;5.160;2022-12-07T06:04:23;101808.72;;;5.67;75.04
66524;BME280;53350;52.210;5.160;2022-12-07T06:06:50;101807.91;;;5.68;75.04
66524;BME280;53350;52.210;5.160;2022-12-07T06:09:16;101809.59;;;5.68;75.15
66524;BME280;53350;52.210;5.160;2022-12-07T06:11:43;101812.06;;;5.65;74.81
66524;BME280;53350;52.210;5.160;2022-12-07T06:14:27;101813.75;;;5.64;74.97
66524;BME280;53350;52.210;5.160;2022-12-07T06:16:55;101819.69;;;5.63;75.06
66524;BME280;53350;52.210;5.160;2022-12-07T06:19:22;101820.59;;;5.65;74.88
66524;BME280;53350;52.210;5.160;2022-12-07T06:21:48;101819.78;;;5.66;75.25
66524;BME280;53350;52.210;5.160;2022-12-07T06:24:16;101818.88;;;5.64;74.88
66524;BME280;53350;52.210;5.160;2022-12-07T06:26:43;101821.41;;;5.63;74.89
66524;BME280;53350;52.210;5.160;2022-12-07T06:29:10;101816.22;;;5.60;75.00
66524;BME280;53350;52.210;5.160;2022-12-07T06:31:37;101819.59;;;5.58;74.73
66524;BME280;53350;52.210;5.160;2022-12-07T06:34:07;101813.63;;;5.58;74.65
66524;BME280;53350;52.210;5.160;2022-12-07T06:36:35;101813.63;;;5.58;75.14
66524;BME280;53350;52.210;5.160;2022-12-07T06:39:02;101813.63;;;5.58;74.63
66524;BME280;53350;52.210;5.160;2022-12-07T06:41:29;101811.91;;;5.58;74.90
66524;BME280;53350;52.210;5.160;2022-12-07T06:43:55;101821.31;;;5.60;74.72
66524;BME280;53350;52.210;5.160;2022-12-07T06:46:22;101831.53;;;5.60;75.02
66524;BME280;53350;52.210;5.160;2022-12-07T06:48:49;101830.75;;;5.62;75.02
66524;BME280;53350;52.210;5.160;2022-12-07T06:51:17;101835.06;;;5.65;75.04
66524;BME280;53350;52.210;5.160;2022-12-07T06:53:44;101824.94;;;5.68;74.97
66524;BME280;53350;52.210;5.160;2022-12-07T06:56:10;101818.94;;;5.67;75.22
66524;BME280;53350;52.210;5.160;2022-12-07T06:58:39;101815.53;;;5.67;75.07
66524;BME280;53350;52.210;5.160;2022-12-07T07:01:08;101812.13;;;5.66;74.88
66524;BME280;53350;52.210;5.160;2022-12-07T07:03:34;101809.50;;;5.65;75.02
66524;BME280;53350;52.210;5.160;2022-12-07T07:06:01;101812.88;;;5.62;74.92
66524;BME280;53350;52.210;5.160;2022-12-07T07:08:29;101807.75;;;5.62;74.96
66524;BME280;53350;52.210;5.160;2022-12-07T07:10:56;101819.69;;;5.63;74.91
66524;BME280;53350;52.210;5.160;2022-12-07T07:13:22;101819.66;;;5.62;75.00
66524;BME280;53350;52.210;5.160;2022-12-07T07:15:49;101808.63;;;5.63;75.23
66524;BME280;53350;52.210;5.160;2022-12-07T07:18:15;101816.25;;;5.61;75.08
66524;BME280;53350;52.210;5.160;2022-12-07T07:20:42;101815.41;;;5.61;75.03
66524;BME280;53350;52.210;5.160;2022-12-07T07:23:08;101812.81;;;5.59;74.94
66524;BME280;53350;52.210;5.160;2022-12-07T07:25:36;101813.63;;;5.58;74.75
66524;BME280;53350;52.210;5.160;2022-12-07T07:28:03;101827.19;;;5.55;74.64
66524;BME280;53350;52.210;5.160;2022-12-07T07:30:29;101823.75;;;5.53;74.83
66524;BME280;53350;52.210;5.160;2022-12-07T07:32:56;101830.47;;;5.51;74.46
66524;BME280;53350;52.210;5.160;2022-12-07T07:35:22;101828.72;;;5.49;74.58
66524;BME280;53350;52.210;5.160;2022-12-07T07:37:49;101822.69;;;5.45;74.33
66524;BME280;53350;52.210;5.160;2022-12-07T07:40:15;101833.72;;;5.44;74.37
66524;BME280;53350;52.210;5.160;2022-12-07T07:42:43;101830.28;;;5.42;74.40
66524;BME280;53350;52.210;5.160;2022-12-07T07:45:10;101825.97;;;5.41;74.00
66524;BME280;53350;52.210;5.160;2022-12-07T07:47:36;101829.31;;;5.38;74.15
66524;BME280;53350;52.210;5.160;2022-12-07T07:50:03;101821.63;;;5.37;74.14
66524;BME280;53350;52.210;5.160;2022-12-07T07:52:30;101827.56;;;5.36;73.87
66524;BME280;53350;52.210;5.160;2022-12-07T07:54:57;101824.94;;;5.34;74.11
66524;BME280;53350;52.210;5.160;2022-12-07T07:57:24;101818.19;;;5.36;74.05
66524;BME280;53350;52.210;5.160;2022-12-07T07:59:51;101836.13;;;5.38;74.04
66524;BME280;53350;52.210;5.160;2022-12-07T08:02:19;101836.06;;;5.35;73.92
66524;BME280;53350;52.210;5.160;2022-12-07T08:04:47;101849.72;;;5.37;74.20
66524;BME280;53350;52.210;5.160;2022-12-07T08:07:14;101841.28;;;5.39;74.72
66524;BME280;53350;52.210;5.160;2022-12-07T08:09:41;101845.53;;;5.39;75.67
66524;BME280;53350;52.210;5.160;2022-12-07T08:12:08;101855.94;;;5.47;75.74
66524;BME280;53350;52.210;5.160;2022-12-07T08:14:34;101845.06;;;5.55;76.22
66524;BME280;53350;52.210;5.160;2022-12-07T08:17:02;101846.97;;;5.64;76.37
66524;BME280;53350;52.210;5.160;2022-12-07T08:19:29;101844.59;;;5.72;76.49
66524;BME280;53350;52.210;5.160;2022-12-07T08:21:55;101845.66;;;5.80;76.57
66524;BME280;53350;52.210;5.160;2022-12-07T08:24:22;101850.94;;;5.88;76.64
66524;BME280;53350;52.210;5.160;2022-12-07T08:26:48;101846.78;;;5.91;76.49
66524;BME280;53350;52.210;5.160;2022-12-07T08:29:15;101846.88;;;5.96;76.53
66524;BME280;53350;52.210;5.160;2022-12-07T08:31:42;101841.84;;;5.98;76.50
66524;BME280;53350;52.210;5.160;2022-12-07T08:34:11;101844.47;;;6.01;76.64
66524;BME280;53350;52.210;5.160;2022-12-07T08:36:38;101850.56;;;6.06;76.57
66524;BME280;53350;52.210;5.160;2022-12-07T08:39:04;101845.56;;;6.12;76.64
66524;BME280;53350;52.210;5.160;2022-12-07T08:41:31;101853.38;;;6.18;76.69
66524;BME280;53350;52.210;5.160;2022-12-07T08:43:57;101846.72;;;6.25;76.83
66524;BME280;53350;52.210;5.160;2022-12-07T08:46:26;101851.94;;;6.31;76.90
66524;BME280;53350;52.210;5.160;2022-12-07T08:48:57;101838.41;;;6.37;76.78
66524;BME280;53350;52.210;5.160;2022-12-07T08:51:26;101837.69;;;6.42;76.69
66524;BME280;53350;52.210;5.160;2022-12-07T08:53:53;101831.00;;;6.48;76.88
66524;BME280;53350;52.210;5.160;2022-12-07T08:56:20;101814.75;;;6.47;76.85
66524;BME280;53350;52.210;5.160;2022-12-07T08:58:48;101815.56;;;6.44;77.15
66524;BME280;53350;52.210;5.160;2022-12-07T09:01:14;101825.84;;;6.46;76.96
66524;BME280;53350;52.210;5.160;2022-12-07T09:03:41;101824.16;;;6.48;76.92
66524;BME280;53350;52.210;5.160;2022-12-07T09:06:07;101822.47;;;6.50;76.84
66524;BME280;53350;52.210;5.160;2022-12-07T09:08:39;101829.41;;;6.54;77.10
66524;BME280;53350;52.210;5.160;2022-12-07T09:11:06;101826.97;;;6.59;77.00
66524;BME280;53350;52.210;5.160;2022-12-07T09:13:33;101834.75;;;6.65;77.16
66524;BME280;53350;52.210;5.160;2022-12-07T09:15:59;101833.09;;;6.69;77.32
66524;BME280;53350;52.210;5.160;2022-12-07T09:18:26;101828.03;;;6.72;77.29
66524;BME280;53350;52.210;5.160;2022-12-07T09:20:52;101832.38;;;6.76;76.88
66524;BME280;53350;52.210;5.160;2022-12-07T09:23:19;101829.88;;;6.79;77.27
66524;BME280;53350;52.210;5.160;2022-12-07T09:25:47;101831.69;;;6.83;77.22
66524;BME280;53350;52.210;5.160;2022-12-07T09:28:13;101831.72;;;6.86;77.43
66524;BME280;53350;52.210;5.160;2022-12-07T09:30:45;101836.97;;;6.91;77.26
66524;BME280;53350;52.210;5.160;2022-12-07T09:33:12;101835.34;;;6.96;77.59
66524;BME280;53350;52.210;5.160;2022-12-07T09:35:38;101832.88;;;7.02;77.39
66524;BME280;53350;52.210;5.160;2022-12-07T09:38:09;101827.88;;;7.07;77.55
66524;BME280;53350;52.210;5.160;2022-12-07T09:40:36;101831.34;;;7.12;77.31
66524;BME280;53350;52.210;5.160;2022-12-07T09:43:04;101826.25;;;7.13;77.54
66524;BME280;53350;52.210;5.160;2022-12-07T09:45:32;101826.31;;;7.18;77.32
66524;BME280;53350;52.210;5.160;2022-12-07T09:48:00;101830.66;;;7.21;77.26
66524;BME280;53350;52.210;5.160;2022-12-07T09:50:29;101817.88;;;7.24;77.46
66524;BME280;53350;52.210;5.160;2022-12-07T09:53:06;101823.09;;;7.28;77.38
66524;BME280;53350;52.210;5.160;2022-12-07T09:55:33;101823.19;;;7.33;77.71
66524;BME280;53350;52.210;5.160;2022-12-07T09:58:03;101813.00;;;7.36;77.39
66524;BME280;53350;52.210;5.160;2022-12-07T10:00:30;101813.09;;;7.42;77.45
66524;BME280;53350;52.210;5.160;2022-12-07T10:02:58;101815.69;;;7.45;77.49
66524;BME280;53350;52.210;5.160;2022-12-07T10:05:27;101815.72;;;7.48;77.64
66524;BME280;53350;52.210;5.160;2022-12-07T10:07:56;101813.19;;;7.50;77.27
66524;BME280;53350;52.210;5.160;2022-12-07T10:10:25;101816.66;;;7.52;77.49
66524;BME280;53350;52.210;5.160;2022-12-07T10:12:57;101809.84;;;7.54;77.13
66524;BME280;53350;52.210;5.160;2022-12-07T10:15:41;101812.47;;;7.57;76.97
66524;BME280;53350;52.210;5.160;2022-12-07T10:18:18;101802.28;;;7.60;76.60
66524;BME280;53350;52.210;5.160;2022-12-07T10:20:46;101799.75;;;7.63;76.89
66524;BME280;53350;52.210;5.160;2022-12-07T10:23:15;101801.56;;;7.69;76.93
66524;BME280;53350;52.210;5.160;2022-12-07T10:25:42;101803.28;;;7.73;76.77
66524;BME280;53350;52.210;5.160;2022-12-07T10:28:13;101793.13;;;7.78;76.59
66524;BME280;53350;52.210;5.160;2022-12-07T10:30:57;101794.00;;;7.80;76.14
66524;BME280;53350;52.210;5.160;2022-12-07T10:33:30;101790.59;;;7.81;75.44
66524;BME280;53350;52.210;5.160;2022-12-07T10:35:57;101794.03;;;7.83;75.57
66524;BME280;53350;52.210;5.160;2022-12-07T10:38:25;101793.28;;;7.89;76.13
66524;BME280;53350;52.210;5.160;2022-12-07T10:41:02;101785.69;;;7.98;76.66
66524;BME280;53350;52.210;5.160;2022-12-07T10:43:29;101792.63;;;8.05;76.29
66524;BME280;53350;52.210;5.160;2022-12-07T10:48:58;101779.94;;;8.13;75.91
66524;BME280;53350;52.210;5.160;2022-12-07T10:51:34;101782.50;;;8.13;75.79
66524;BME280;53350;52.210;5.160;2022-12-07T10:54:10;101775.63;;;8.13;75.33
66524;BME280;53350;52.210;5.160;2022-12-07T10:59:46;101772.22;;;8.11;74.65
66524;BME280;53350;52.210;5.160;2022-12-07T11:02:25;101759.34;;;8.10;75.10
66524;BME280;53350;52.210;5.160;2022-12-07T11:05:02;101759.34;;;8.10;75.24
66524;BME280;53350;52.210;5.160;2022-12-07T11:07:40;101759.41;;;8.13;76.06
66524;BME280;53350;52.210;5.160;2022-12-07T11:10:13;101753.44;;;8.15;76.20
66524;BME280;53350;52.210;5.160;2022-12-07T11:13:04;101746.63;;;8.17;76.04
66524;BME280;53350;52.210;5.160;2022-12-07T11:15:42;101750.91;;;8.18;76.18
66524;BME280;53350;52.210;5.160;2022-12-07T11:18:22;101750.94;;;8.20;75.88
66524;BME280;53350;52.210;5.160;2022-12-07T11:20:54;101756.94;;;8.22;75.87
66524;BME280;53350;52.210;5.160;2022-12-07T11:23:29;101752.69;;;8.23;75.52
66524;BME280;53350;52.210;5.160;2022-12-07T11:26:05;101750.94;;;8.22;75.35
66524;BME280;53350;52.210;5.160;2022-12-07T11:28:46;101745.78;;;8.20;74.96
66524;BME280;53350;52.210;5.160;2022-12-07T11:31:25;101738.94;;;8.19;74.90
66524;BME280;53350;52.210;5.160;2022-12-07T11:34:00;101738.09;;;8.18;74.00
66524;BME280;53350;52.210;5.160;2022-12-07T11:36:35;101735.44;;;8.14;72.98
66524;BME280;53350;52.210;5.160;2022-12-07T11:39:05;101732.81;;;8.09;72.90
66524;BME280;53350;52.210;5.160;2022-12-07T11:41:38;101723.41;;;8.07;73.01
66524;BME280;53350;52.210;5.160;2022-12-07T11:44:07;101724.25;;;8.09;73.25
66524;BME280;53350;52.210;5.160;2022-12-07T11:46:46;101717.44;;;8.12;73.05
66524;BME280;53350;52.210;5.160;2022-12-07T11:49:21;101720.00;;;8.11;73.19
66524;BME280;53350;52.210;5.160;2022-12-07T11:51:54;101718.34;;;8.14;73.22
66524;BME280;53350;52.210;5.160;2022-12-07T11:54:26;101718.38;;;8.16;72.81
66524;BME280;53350;52.210;5.160;2022-12-07T11:56:56;101714.13;;;8.21;72.39
66524;BME280;53350;52.210;5.160;2022-12-07T11:59:30;101712.44;;;8.22;72.60
66524;BME280;53350;52.210;5.160;2022-12-07T12:02:00;101700.47;;;8.24;72.62
66524;BME280;53350;52.210;5.160;2022-12-07T12:04:46;101701.38;;;8.27;72.57
66524;BME280;53350;52.210;5.160;2022-12-07T12:07:19;101698.84;;;8.30;72.38
66524;BME280;53350;52.210;5.160;2022-12-07T12:09:50;101698.91;;;8.35;72.24
66524;BME280;53350;52.210;5.160;2022-12-07T12:12:37;101691.22;;;8.38;72.13
66524;BME280;53350;52.210;5.160;2022-12-07T12:15:23;101690.44;;;8.44;71.55
66524;BME280;53350;52.210;5.160;2022-12-07T12:18:08;101696.50;;;8.47;71.79
66524;BME280;53350;52.210;5.160;2022-12-07T12:20:40;101692.25;;;8.52;71.35
66524;BME280;53350;52.210;5.160;2022-12-07T12:23:12;101696.63;;;8.63;71.72
66524;BME280;53350;52.210;5.160;2022-12-07T12:25:45;101694.19;;;8.72;71.93
66524;BME280;53350;52.210;5.160;2022-12-07T12:28:28;101678.03;;;8.87;71.86
66524;BME280;53350;52.210;5.160;2022-12-07T12:31:07;101711.50;;;8.96;72.08
66524;BME280;53350;52.210;5.160;2022-12-07T12:33:35;101703.84;;;8.99;71.50
66524;BME280;53350;52.210;5.160;2022-12-07T12:36:23;101699.41;;;8.84;71.00
66524;BME280;53350;52.210;5.160;2022-12-07T12:39:07;101692.50;;;8.77;71.43
66524;BME280;53350;52.210;5.160;2022-12-07T12:42:17;101691.59;;;8.70;71.88
66524;BME280;53350;52.210;5.160;2022-12-07T12:45:17;101677.84;;;8.67;71.19
66524;BME280;53350;52.210;5.160;2022-12-07T12:48:01;101676.91;;;8.59;71.53
66524;BME280;53350;52.210;5.160;2022-12-07T12:50:31;101667.47;;;8.53;71.43
66524;BME280;53350;52.210;5.160;2022-12-07T12:53:11;101670.03;;;8.53;71.76
66524;BME280;53350;52.210;5.160;2022-12-07T12:59:24;101650.41;;;8.61;72.71
66524;BME280;53350;52.210;5.160;2022-12-07T13:01:52;101644.44;;;8.64;72.57
66524;BME280;53350;52.210;5.160;2022-12-07T13:07:12;101651.34;;;8.69;72.92
66524;BME280;53350;52.210;5.160;2022-12-07T13:09:44;101650.53;;;8.74;73.03
66524;BME280;53350;52.210;5.160;2022-12-07T13:12:13;101640.28;;;8.78;72.68
66524;BME280;53350;52.210;5.160;2022-12-07T13:14:58;101635.16;;;8.81;72.71
66524;BME280;53350;52.210;5.160;2022-12-07T13:18:00;101632.59;;;8.84;72.61
66524;BME280;53350;52.210;5.160;2022-12-07T13:20:41;101633.53;;;8.90;72.73
66524;BME280;53350;52.210;5.160;2022-12-07T13:23:09;101623.28;;;8.94;72.52
66524;BME280;53350;52.210;5.160;2022-12-07T13:25:45;101625.00;;;8.98;72.36
66524;BME280;53350;52.210;5.160;2022-12-07T13:28:16;101616.47;;;8.99;72.25